Terminal Aerodrome Forecast
Issued by NWS

Home | Current Version | Previous Version | Text Only | Print | Product List | Glossary On
Versions: 1 2 3 4 5 6 7 8 9 10 11 12 13 14 15 16 17 18 19 20 21 22
000
FTAK31 PAJN 191136
TAFAPG
TAF
PAPG 191136Z 1912/2012 29006KT 3SM -SHSN BR OVC012
     FM191700 VRB02KT P6SM OVC015
     FM192100 06004KT P6SM SCT070 SCT100
     FM200300 20002KT 4SM BR SCT120
      AMD LTD TO CLD VIS AND WIND 1912/1915=

USA.gov is the U.S. government's official web portal to all federal, state and local government web resources and services.